createdAt,value
2016-04-13T00:00:00.063Z,0
2016-04-13T00:01:00.066Z,0
2016-04-13T00:02:00.038Z,0
2016-04-13T00:03:00.008Z,0
2016-04-13T00:03:59.996Z,0
2016-04-13T00:04:59.952Z,0
2016-04-13T00:06:00.376Z,0
2016-04-13T00:06:59.926Z,0
2016-04-13T00:07:59.881Z,0
2016-04-13T00:08:59.873Z,0
2016-04-13T00:09:59.829Z,0
2016-04-13T00:10:59.831Z,0
2016-04-13T00:11:59.803Z,0
2016-04-13T00:12:59.775Z,0
2016-04-13T00:13:59.745Z,0
2016-04-13T00:14:59.717Z,0
2016-04-13T00:15:59.689Z,0
2016-04-13T00:16:59.675Z,0
2016-04-13T00:17:59.663Z,0
2016-04-13T00:18:59.650Z,0
2016-04-13T00:20:03.621Z,0
2016-04-13T00:20:59.656Z,0
2016-04-13T00:21:59.581Z,0
2016-04-13T00:22:59.551Z,0
2016-04-13T00:23:59.508Z,0
2016-04-13T00:24:59.494Z,0
2016-04-13T00:25:59.450Z,0
2016-04-13T00:26:59.438Z,0
2016-04-13T00:27:59.424Z,0
2016-04-13T00:28:59.443Z,0
2016-04-13T00:29:59.368Z,0
2016-04-13T00:30:59.338Z,0
2016-04-13T00:31:59.326Z,0
2016-04-13T00:32:59.297Z,0
2016-04-13T00:33:59.284Z,0
2016-04-13T00:34:59.256Z,0
2016-04-13T00:35:59.196Z,0
2016-04-13T00:36:59.198Z,0
2016-04-13T00:37:59.170Z,0
2016-04-13T00:38:59.156Z,0
2016-04-13T00:39:59.144Z,0
2016-04-13T00:40:59.116Z,0
2016-04-13T00:41:59.103Z,0
2016-04-13T00:42:59.106Z,0
2016-04-13T00:43:59.030Z,0
2016-04-13T00:44:59.001Z,0
2016-04-13T00:45:58.989Z,0
2016-04-13T00:46:58.976Z,0
2016-04-13T00:47:58.931Z,0
2016-04-13T00:48:58.919Z,0
2016-04-13T00:49:58.875Z,0
2016-04-13T00:50:58.939Z,0
2016-04-13T00:51:58.863Z,0
2016-04-13T00:52:58.819Z,0
2016-04-13T00:53:58.791Z,0
2016-04-13T00:54:58.778Z,0
2016-04-13T00:55:58.765Z,0
2016-04-13T00:56:58.752Z,0
2016-04-13T00:57:58.708Z,0
2016-04-13T00:58:58.663Z,0
2016-04-13T00:59:58.651Z,0
2016-04-13T01:00:58.654Z,0
2016-04-13T01:01:58.593Z,0
2016-04-13T01:02:58.596Z,0
2016-04-13T01:03:58.584Z,0
2016-04-13T01:04:58.539Z,0
2016-04-13T01:05:58.401Z,0
2016-04-13T01:06:58.513Z,0
2016-04-13T01:07:58.470Z,0
2016-04-13T01:08:58.441Z,0
2016-04-13T01:09:58.413Z,0
2016-04-13T01:10:58.384Z,0
2016-04-13T01:11:58.355Z,0
2016-04-13T01:12:58.331Z,0
2016-04-13T01:13:58.302Z,0
2016-04-13T01:14:58.351Z,0
2016-04-13T01:15:58.276Z,0
2016-04-13T01:16:58.232Z,0
2016-04-13T01:17:58.218Z,0
2016-04-13T01:18:58.190Z,0
2016-04-13T01:19:58.037Z,0
2016-04-13T01:20:58.196Z,0
2016-04-13T01:21:58.105Z,0
2016-04-13T01:22:58.095Z,0
2016-04-13T01:23:58.067Z,0
2016-04-13T01:24:57.883Z,0
2016-04-13T01:25:58.041Z,0
2016-04-13T01:26:57.997Z,0
2016-04-13T01:27:57.969Z,0
2016-04-13T01:28:57.815Z,0
2016-04-13T01:29:57.927Z,0
2016-04-13T01:30:57.899Z,0
2016-04-13T01:31:57.885Z,0
2016-04-13T01:32:57.857Z,0
2016-04-13T01:33:57.813Z,0
2016-04-13T01:34:57.799Z,0
2016-04-13T01:35:57.662Z,0
2016-04-13T01:36:57.742Z,0
2016-04-13T01:37:57.729Z,0
2016-04-13T01:38:57.701Z,0
2016-04-13T01:39:57.688Z,0
2016-04-13T01:40:57.676Z,0
2016-04-13T01:41:57.631Z,0
2016-04-13T01:42:57.603Z,0
2016-04-13T01:43:57.574Z,0
2016-04-13T01:44:57.562Z,0
2016-04-13T01:45:57.532Z,0
2016-04-13T01:46:57.520Z,0
2016-04-13T01:47:57.476Z,0
2016-04-13T01:48:57.462Z,0
2016-04-13T01:49:57.434Z,0
2016-04-13T01:50:57.405Z,0
2016-04-13T01:51:57.392Z,0
2016-04-13T01:52:57.364Z,0
2016-04-13T01:53:57.210Z,0
2016-04-13T01:54:57.333Z,0
2016-04-13T01:55:57.331Z,0
2016-04-13T01:56:57.377Z,0
2016-04-13T01:57:57.393Z,0
2016-04-13T01:58:57.390Z,0
2016-04-13T01:59:57.414Z,0
2016-04-13T02:00:57.385Z,0
2016-04-13T02:01:57.388Z,0
2016-04-13T02:02:57.375Z,0
2016-04-13T02:03:57.376Z,0
2016-04-13T02:04:57.361Z,0
2016-04-13T02:05:57.323Z,0
2016-04-13T02:06:57.314Z,0
2016-04-13T02:07:57.292Z,0
2016-04-13T02:08:57.269Z,0
2016-04-13T02:09:57.244Z,0
2016-04-13T02:10:57.217Z,0
2016-04-13T02:11:57.207Z,0
2016-04-13T02:12:57.195Z,0
2016-04-13T02:13:57.170Z,0
2016-04-13T02:14:57.126Z,0
2016-04-13T02:15:57.114Z,0
2016-04-13T02:16:57.071Z,0
2016-04-13T02:17:57.059Z,0
2016-04-13T02:18:57.015Z,0
2016-04-13T02:19:57.002Z,0
2016-04-13T02:20:56.975Z,0
2016-04-13T02:21:56.947Z,0
2016-04-13T02:22:56.934Z,0
2016-04-13T02:23:56.906Z,0
2016-04-13T02:24:56.893Z,0
2016-04-13T02:25:56.881Z,0
2016-04-13T02:26:56.836Z,0
2016-04-13T02:27:56.808Z,0
2016-04-13T02:28:56.779Z,0
2016-04-13T02:29:56.751Z,0
2016-04-13T02:30:56.738Z,0
2016-04-13T02:31:56.709Z,0
2016-04-13T02:32:56.681Z,0
2016-04-13T02:33:56.653Z,0
2016-04-13T02:34:56.623Z,0
2016-04-13T02:35:56.611Z,0
2016-04-13T02:36:56.567Z,0
2016-04-13T02:37:56.538Z,0
2016-04-13T02:38:56.509Z,0
2016-04-13T02:39:56.497Z,0
2016-04-13T02:40:56.483Z,0
2016-04-13T02:41:56.439Z,0
2016-04-13T02:42:56.411Z,0
2016-04-13T02:43:56.382Z,0
2016-04-13T02:44:56.384Z,0
2016-04-13T02:45:56.356Z,0
2016-04-13T02:46:56.328Z,0
2016-04-13T02:47:56.283Z,0
2016-04-13T02:48:56.255Z,0
2016-04-13T02:49:56.242Z,0
2016-04-13T02:50:56.213Z,0
2016-04-13T02:51:56.185Z,0
2016-04-13T02:52:56.171Z,0
2016-04-13T02:53:56.143Z,0
2016-04-13T02:54:56.114Z,0
2016-04-13T02:55:56.086Z,0
2016-04-13T02:56:56.057Z,0
2016-04-13T02:57:56.028Z,0
2016-04-13T02:58:56.016Z,0
2016-04-13T02:59:55.987Z,0
2016-04-13T03:00:55.975Z,0
2016-04-13T03:01:55.946Z,0
2016-04-13T03:02:55.917Z,0
2016-04-13T03:03:55.889Z,0
2016-04-13T03:04:55.861Z,0
2016-04-13T03:05:55.832Z,0
2016-04-13T03:06:55.834Z,0
2016-04-13T03:07:55.791Z,0
2016-04-13T03:08:55.746Z,0
2016-04-13T03:09:55.733Z,0
2016-04-13T03:10:55.705Z,0
2016-04-13T03:11:55.691Z,0
2016-04-13T03:12:55.679Z,0
2016-04-13T03:13:55.665Z,0
2016-04-13T03:14:55.606Z,0
2016-04-13T03:15:55.578Z,0
2016-04-13T03:16:55.549Z,0
2016-04-13T03:17:55.536Z,0
2016-04-13T03:18:55.507Z,0
2016-04-13T03:19:55.494Z,0
2016-04-13T03:20:55.326Z,0
2016-04-13T03:21:55.297Z,0
2016-04-13T03:22:55.424Z,0
2016-04-13T03:23:55.395Z,0
2016-04-13T03:24:55.351Z,0
2016-04-13T03:25:55.370Z,0
2016-04-13T03:26:55.325Z,0
2016-04-13T03:27:55.281Z,0
2016-04-13T03:28:55.268Z,0
2016-04-13T03:29:55.240Z,0
2016-04-13T03:30:55.212Z,0
2016-04-13T03:31:55.183Z,0
2016-04-13T03:32:55.154Z,0
2016-04-13T03:33:55.142Z,0
2016-04-13T03:34:55.113Z,0
2016-04-13T03:35:55.100Z,0
2016-04-13T03:36:55.056Z,0
2016-04-13T03:37:55.042Z,0
2016-04-13T03:38:55.030Z,0
2016-04-13T03:39:55.002Z,0
2016-04-13T03:40:54.962Z,0
2016-04-13T03:41:54.933Z,0
2016-04-13T03:42:54.920Z,0
2016-04-13T03:43:54.892Z,0
2016-04-13T03:44:54.879Z,0
2016-04-13T03:45:54.694Z,0
2016-04-13T03:46:54.806Z,0
2016-04-13T03:47:54.793Z,0
2016-04-13T03:48:54.765Z,0
2016-04-13T03:49:54.736Z,0
2016-04-13T03:50:54.567Z,0
2016-04-13T03:51:54.710Z,0
2016-04-13T03:52:54.665Z,0
2016-04-13T03:53:54.637Z,0
2016-04-13T03:54:54.609Z,0
2016-04-13T03:55:54.612Z,0
2016-04-13T03:56:54.567Z,0
2016-04-13T03:57:54.570Z,0
2016-04-13T03:58:54.542Z,0
2016-04-13T03:59:54.514Z,0
2016-04-13T04:00:54.312Z,0
2016-04-13T04:01:54.440Z,0
2016-04-13T04:02:54.411Z,0
2016-04-13T04:03:54.399Z,0
2016-04-13T04:04:54.370Z,0
2016-04-13T04:05:54.341Z,0
2016-04-13T04:06:54.328Z,0
2016-04-13T04:07:54.300Z,0
2016-04-13T04:08:54.272Z,0
2016-04-13T04:09:54.258Z,0
2016-04-13T04:10:54.230Z,0
2016-04-13T04:11:54.202Z,0
2016-04-13T04:12:54.174Z,0
2016-04-13T04:13:54.145Z,0
2016-04-13T04:14:54.132Z,0
2016-04-13T04:15:54.103Z,0
2016-04-13T04:16:54.074Z,0
2016-04-13T04:17:54.046Z,0
2016-04-13T04:18:54.018Z,0
2016-04-13T04:19:54.004Z,0
2016-04-13T04:20:53.976Z,0
2016-04-13T04:21:53.978Z,0
2016-04-13T04:22:53.918Z,0
2016-04-13T04:23:53.890Z,0
2016-04-13T04:24:53.877Z,0
2016-04-13T04:25:53.864Z,0
2016-04-13T04:26:53.836Z,0
2016-04-13T04:27:53.807Z,0
2016-04-13T04:28:53.779Z,0
2016-04-13T04:29:53.750Z,0
2016-04-13T04:30:53.753Z,0
2016-04-13T04:31:53.725Z,0
2016-04-13T04:32:53.681Z,5
2016-04-13T04:33:53.651Z,5
2016-04-13T04:34:53.623Z,5
2016-04-13T04:35:53.610Z,5
2016-04-13T04:36:53.488Z,5
2016-04-13T04:37:53.569Z,5
2016-04-13T04:38:53.524Z,5
2016-04-13T04:39:53.511Z,10
2016-04-13T04:40:53.483Z,10
2016-04-13T04:41:53.470Z,10
2016-04-13T04:42:53.426Z,10
2016-04-13T04:43:53.397Z,10
2016-04-13T04:44:56.369Z,15
2016-04-13T04:45:53.355Z,15
2016-04-13T04:46:53.327Z,15
2016-04-13T04:47:53.313Z,15
2016-04-13T04:48:53.301Z,20
2016-04-13T04:49:53.226Z,20
2016-04-13T04:50:53.244Z,20
2016-04-13T04:51:53.246Z,25
2016-04-13T04:52:53.171Z,25
2016-04-13T04:53:53.158Z,25
2016-04-13T04:54:53.129Z,30
2016-04-13T04:55:53.117Z,30
2016-04-13T04:56:53.057Z,30
2016-04-13T04:57:53.060Z,35
2016-04-13T04:58:53.032Z,35
2016-04-13T04:59:53.003Z,40
2016-04-13T05:00:52.974Z,40
2016-04-13T05:01:52.961Z,40
2016-04-13T05:02:52.948Z,45
2016-04-13T05:03:52.904Z,45
2016-04-13T05:04:52.891Z,50
2016-04-13T05:05:52.862Z,50
2016-04-13T05:06:52.834Z,50
2016-04-13T05:07:52.805Z,50
2016-04-13T05:08:52.777Z,55
2016-04-13T05:09:52.764Z,55
2016-04-13T05:10:52.736Z,60
2016-04-13T05:11:52.707Z,65
2016-04-13T05:12:52.678Z,65
2016-04-13T05:13:52.649Z,70
2016-04-13T05:14:52.652Z,75
2016-04-13T05:15:52.607Z,75
2016-04-13T05:16:52.563Z,80
2016-04-13T05:17:52.551Z,85
2016-04-13T05:18:52.538Z,85
2016-04-13T05:19:52.494Z,90
2016-04-13T05:20:52.465Z,90
2016-04-13T05:21:52.219Z,90
2016-04-13T05:22:52.423Z,90
2016-04-13T05:23:52.410Z,90
2016-04-13T05:24:52.382Z,95
2016-04-13T05:25:52.354Z,95
2016-04-13T05:26:52.341Z,90
2016-04-13T05:27:52.343Z,90
2016-04-13T05:28:52.268Z,85
2016-04-13T05:29:52.271Z,85
2016-04-13T05:30:52.258Z,85
2016-04-13T05:31:52.198Z,85
2016-04-13T05:32:52.169Z,85
2016-04-13T05:33:52.173Z,90
2016-04-13T05:34:52.128Z,100
2016-04-13T05:35:52.131Z,100
2016-04-13T05:36:52.274Z,105
2016-04-13T05:37:52.073Z,105
2016-04-13T05:38:52.044Z,110
2016-04-13T05:39:52.001Z,115
2016-04-13T05:40:51.988Z,115
2016-04-13T05:41:51.991Z,115
2016-04-13T05:42:51.946Z,115
2016-04-13T05:43:51.918Z,115
2016-04-13T05:44:51.889Z,110
2016-04-13T05:45:51.860Z,110
2016-04-13T05:46:51.691Z,110
2016-04-13T05:47:51.819Z,110
2016-04-13T05:48:51.790Z,115
2016-04-13T05:49:51.762Z,115
2016-04-13T05:50:51.749Z,120
2016-04-13T05:51:51.548Z,120
2016-04-13T05:52:51.692Z,125
2016-04-13T05:53:51.664Z,125
2016-04-13T05:54:51.635Z,125
2016-04-13T05:55:51.621Z,130
2016-04-13T05:56:51.609Z,130
2016-04-13T05:57:51.549Z,130
2016-04-13T05:58:51.552Z,130
2016-04-13T05:59:51.523Z,135
2016-04-13T06:00:51.495Z,135
2016-04-13T06:01:51.467Z,135
2016-04-13T06:02:51.437Z,135
2016-04-13T06:03:51.425Z,135
2016-04-13T06:04:51.395Z,135
2016-04-13T06:05:51.368Z,135
2016-04-13T06:06:51.339Z,135
2016-04-13T06:07:51.326Z,135
2016-04-13T06:08:51.314Z,135
2016-04-13T06:09:51.269Z,135
2016-04-13T06:10:51.241Z,130
2016-04-13T06:11:51.228Z,130
2016-04-13T06:12:51.215Z,125
2016-04-13T06:13:51.186Z,125
2016-04-13T06:14:51.157Z,120
2016-04-13T06:15:51.144Z,120
2016-04-13T06:16:51.100Z,120
2016-04-13T06:17:51.071Z,120
2016-04-13T06:18:51.058Z,125
2016-04-13T06:19:51.046Z,130
2016-04-13T06:20:51.018Z,130
2016-04-13T06:21:50.988Z,135
2016-04-13T06:22:50.961Z,135
2016-04-13T06:23:50.963Z,145
2016-04-13T06:24:50.918Z,140
2016-04-13T06:25:50.890Z,135
2016-04-13T06:26:50.705Z,135
2016-04-13T06:27:50.849Z,135
2016-04-13T06:28:50.835Z,135
2016-04-13T06:29:50.807Z,135
2016-04-13T06:30:50.779Z,135
2016-04-13T06:31:50.750Z,140
2016-04-13T06:32:50.581Z,140
2016-04-13T06:33:50.692Z,140
2016-04-13T06:34:50.680Z,150
2016-04-13T06:35:50.667Z,155
2016-04-13T06:36:50.638Z,165
2016-04-13T06:37:50.595Z,170
2016-04-13T06:38:50.581Z,175
2016-04-13T06:39:50.568Z,185
2016-04-13T06:40:50.540Z,190
2016-04-13T06:41:50.511Z,195
2016-04-13T06:42:50.514Z,200
2016-04-13T06:43:50.469Z,205
2016-04-13T06:44:50.472Z,210
2016-04-13T06:45:50.428Z,210
2016-04-13T06:46:50.416Z,215
2016-04-13T06:47:50.371Z,215
2016-04-13T06:48:50.358Z,220
2016-04-13T06:49:50.360Z,220
2016-04-13T06:50:50.317Z,225
2016-04-13T06:51:50.351Z,225
2016-04-13T06:52:50.260Z,225
2016-04-13T06:53:50.231Z,230
2016-04-13T06:54:50.202Z,230
2016-04-13T06:55:50.190Z,235
2016-04-13T06:56:50.161Z,240
2016-04-13T06:57:50.148Z,240
2016-04-13T06:58:50.104Z,240
2016-04-13T06:59:50.091Z,245
2016-04-13T07:00:50.062Z,245
2016-04-13T07:01:50.034Z,245
2016-04-13T07:02:50.021Z,250
2016-04-13T07:03:49.992Z,255
2016-04-13T07:04:49.979Z,260
2016-04-13T07:05:49.951Z,265
2016-04-13T07:06:49.937Z,270
2016-04-13T07:07:49.925Z,275
2016-04-13T07:08:49.880Z,285
2016-04-13T07:09:49.867Z,285
2016-04-13T07:10:49.855Z,285
2016-04-13T07:11:49.685Z,280
2016-04-13T07:12:49.797Z,280
2016-04-13T07:13:49.769Z,280
2016-04-13T07:14:49.741Z,275
2016-04-13T07:15:49.728Z,275
2016-04-13T07:16:49.699Z,275
2016-04-13T07:17:49.671Z,275
2016-04-13T07:18:49.658Z,275
2016-04-13T07:19:49.644Z,275
2016-04-13T07:20:49.617Z,270
2016-04-13T07:21:49.603Z,270
2016-04-13T07:22:49.591Z,270
2016-04-13T07:23:49.563Z,270
2016-04-13T07:24:49.533Z,270
2016-04-13T07:25:49.521Z,270
2016-04-13T07:26:49.476Z,270
2016-04-13T07:27:49.479Z,270
2016-04-13T07:28:49.451Z,265
2016-04-13T07:29:49.281Z,260
2016-04-13T07:30:49.409Z,260
2016-04-13T07:31:49.411Z,260
2016-04-13T07:32:49.648Z,260
2016-04-13T07:33:54.026Z,260
2016-04-13T07:34:50.684Z,260
2016-04-13T07:35:55.735Z,260
2016-04-13T07:36:53.409Z,265
2016-04-13T07:37:54.131Z,265
2016-04-13T07:38:56.118Z,265
2016-04-13T07:39:56.526Z,270
2016-04-13T07:40:56.076Z,280
2016-04-13T07:41:56.048Z,275
2016-04-13T07:42:56.097Z,280
2016-04-13T07:43:55.866Z,285
2016-04-13T07:44:56.102Z,290
2016-04-13T07:45:55.871Z,295
2016-04-13T07:46:55.983Z,305
2016-04-13T07:47:55.766Z,315
2016-04-13T07:48:55.972Z,325
2016-04-13T07:49:55.757Z,330
2016-04-13T07:50:55.900Z,345
2016-04-13T07:51:55.013Z,335
2016-04-13T07:52:51.968Z,350
2016-04-13T07:53:55.221Z,345
2016-04-13T07:54:55.848Z,375
2016-04-13T07:55:55.335Z,330
2016-04-13T07:56:55.744Z,380
2016-04-13T07:57:55.496Z,480
2016-04-13T07:58:55.735Z,555
2016-04-13T07:59:48.784Z,685
2016-04-13T08:00:48.787Z,885
2016-04-13T08:01:48.758Z,980
2016-04-13T08:02:48.745Z,935
2016-04-13T08:03:48.732Z,960
2016-04-13T08:04:48.703Z,1015
2016-04-13T08:05:48.690Z,925
2016-04-13T08:06:48.662Z,1055
2016-04-13T08:07:48.648Z,945
2016-04-13T08:08:48.297Z,1050
2016-04-13T08:09:48.611Z,1055
2016-04-13T08:10:48.583Z,845
2016-04-13T08:11:48.586Z,825
2016-04-13T08:12:48.557Z,840
2016-04-13T08:13:48.545Z,720
2016-04-13T08:14:48.547Z,1055
2016-04-13T08:15:48.519Z,1075
2016-04-13T08:16:48.491Z,1000
2016-04-13T08:17:48.477Z,1025
2016-04-13T08:18:48.464Z,1040
2016-04-13T08:19:48.452Z,875
2016-04-13T08:20:48.438Z,630
2016-04-13T08:21:48.426Z,745
2016-04-13T08:22:48.413Z,920
2016-04-13T08:23:48.416Z,415
2016-04-13T08:24:55.169Z,400
2016-04-13T08:25:55.171Z,510
2016-04-13T08:26:55.111Z,1185
2016-04-13T08:27:55.160Z,1175
2016-04-13T08:28:55.491Z,1105
2016-04-13T08:29:54.994Z,990
2016-04-13T08:30:54.996Z,670
2016-04-13T08:31:55.124Z,480
2016-04-13T08:32:54.533Z,395
2016-04-13T08:33:48.270Z,385
2016-04-13T08:34:48.304Z,370
2016-04-13T08:35:48.244Z,345
2016-04-13T08:36:48.232Z,330
2016-04-13T08:37:48.203Z,335
2016-04-13T08:38:48.190Z,355
2016-04-13T08:39:48.192Z,355
2016-04-13T08:40:48.164Z,345
2016-04-13T08:41:48.167Z,340
2016-04-13T08:42:48.138Z,340
2016-04-13T08:43:48.125Z,345
2016-04-13T08:44:48.096Z,360
2016-04-13T08:45:48.083Z,365
2016-04-13T08:46:48.086Z,370
2016-04-13T08:47:48.199Z,370
2016-04-13T08:48:48.108Z,365
2016-04-13T08:49:48.173Z,355
2016-04-13T08:50:48.144Z,350
2016-04-13T08:51:48.194Z,355
2016-04-13T08:52:48.165Z,345
2016-04-13T08:53:48.105Z,340
2016-04-13T08:54:47.952Z,350
2016-04-13T08:55:47.783Z,350
2016-04-13T08:56:47.911Z,350
2016-04-13T08:57:47.913Z,355
2016-04-13T08:58:47.885Z,365
2016-04-13T08:59:47.731Z,375
2016-04-13T09:00:47.843Z,380
2016-04-13T09:01:47.846Z,380
2016-04-13T09:02:47.817Z,375
2016-04-13T09:03:47.804Z,370
2016-04-13T09:04:47.775Z,375
2016-04-13T09:05:47.762Z,370
2016-04-13T09:06:47.750Z,370
2016-04-13T09:07:47.753Z,370
2016-04-13T09:08:47.692Z,380
2016-04-13T09:09:47.711Z,375
2016-04-13T09:10:47.698Z,380
2016-04-13T09:11:47.669Z,380
2016-04-13T09:12:47.656Z,380
2016-04-13T09:13:47.628Z,385
2016-04-13T09:14:47.615Z,385
2016-04-13T09:15:47.602Z,380
2016-04-13T09:16:47.589Z,385
2016-04-13T09:17:47.560Z,380
2016-04-13T09:18:47.547Z,375
2016-04-13T09:19:47.535Z,370
2016-04-13T09:20:47.522Z,370
2016-04-13T09:21:47.509Z,375
2016-04-13T09:22:47.480Z,385
2016-04-13T09:23:47.452Z,385
2016-04-13T09:24:47.454Z,395
2016-04-13T09:25:47.426Z,395
2016-04-13T09:26:47.413Z,395
2016-04-13T09:27:47.400Z,400
2016-04-13T09:28:47.388Z,405
2016-04-13T09:29:47.374Z,410
2016-04-13T09:30:47.346Z,410
2016-04-13T09:31:47.317Z,410
2016-04-13T09:32:47.304Z,415
2016-04-13T09:33:47.290Z,420
2016-04-13T09:34:47.278Z,425
2016-04-13T09:35:47.250Z,415
2016-04-13T09:36:47.252Z,415
2016-04-13T09:37:47.209Z,410
2016-04-13T09:38:47.195Z,405
2016-04-13T09:39:47.182Z,400
2016-04-13T09:40:47.169Z,390
2016-04-13T09:41:47.156Z,390
2016-04-13T09:42:47.144Z,390
2016-04-13T09:43:47.114Z,390
2016-04-13T09:44:47.102Z,395
2016-04-13T09:45:47.089Z,390
2016-04-13T09:46:47.075Z,380
2016-04-13T09:47:47.047Z,365
2016-04-13T09:48:47.035Z,350
2016-04-13T09:49:47.006Z,345
2016-04-13T09:50:46.994Z,330
2016-04-13T09:51:47.011Z,320
2016-04-13T09:52:47.030Z,310
2016-04-13T09:53:46.954Z,295
2016-04-13T09:54:47.291Z,290
2016-04-13T09:55:46.688Z,285
2016-04-13T09:56:46.832Z,290
2016-04-13T09:57:46.897Z,295
2016-04-13T09:58:47.244Z,305
2016-04-13T09:59:46.840Z,315
2016-04-13T10:00:46.943Z,330
2016-04-13T10:01:46.805Z,335
2016-04-13T10:02:46.495Z,345
2016-04-13T10:03:46.873Z,350
2016-04-13T10:04:46.601Z,355
2016-04-13T10:05:46.432Z,365
2016-04-13T10:06:46.731Z,365
2016-04-13T10:07:46.672Z,365
2016-04-13T10:08:46.705Z,370
2016-04-13T10:09:46.661Z,375
2016-04-13T10:10:46.664Z,375
2016-04-13T10:11:46.620Z,375
2016-04-13T10:12:54.841Z,375
2016-04-13T10:14:29.875Z,385
2016-04-13T10:15:08.691Z,390
2016-04-13T10:16:05.536Z,395
2016-04-13T10:16:46.572Z,395
2016-04-13T10:17:46.542Z,395
2016-04-13T10:18:46.514Z,390
2016-04-13T10:19:46.501Z,385
2016-04-13T10:20:46.503Z,385
2016-04-13T10:21:46.506Z,375
2016-04-13T10:22:46.728Z,370
2016-04-13T10:23:46.449Z,370
2016-04-13T10:24:46.421Z,375
2016-04-13T10:25:46.392Z,375
2016-04-13T10:26:46.394Z,370
2016-04-13T10:27:46.366Z,370
2016-04-13T10:28:46.354Z,375
2016-04-13T10:29:46.325Z,380
2016-04-13T10:30:46.334Z,385
2016-04-13T10:31:46.306Z,385
2016-04-13T10:32:46.340Z,385
2016-04-13T10:33:46.045Z,390
2016-04-13T10:34:46.267Z,390
2016-04-13T10:35:46.286Z,400
2016-04-13T10:36:46.210Z,400
2016-04-13T10:37:46.166Z,400
2016-04-13T10:38:46.198Z,400
2016-04-13T10:39:46.185Z,405
2016-04-13T10:40:46.140Z,400
2016-04-13T10:41:46.128Z,395
2016-04-13T10:42:46.115Z,390
2016-04-13T10:43:46.103Z,385
2016-04-13T10:44:46.089Z,380
2016-04-13T10:45:46.075Z,380
2016-04-13T10:46:46.044Z,390
2016-04-13T10:47:46.031Z,400
2016-04-13T10:48:46.003Z,405
2016-04-13T10:49:45.991Z,405
2016-04-13T10:50:45.993Z,400
2016-04-13T10:51:45.964Z,390
2016-04-13T10:52:46.123Z,375
2016-04-13T10:53:45.922Z,360
2016-04-13T10:54:45.925Z,350
2016-04-13T10:56:01.041Z,335
2016-04-13T10:56:59.824Z,325
2016-04-13T10:58:12.780Z,320
2016-04-13T10:59:12.205Z,320
2016-04-13T11:00:14.723Z,310
2016-04-13T11:01:10.673Z,305
2016-04-13T11:02:08.533Z,300
2016-04-13T11:03:28.814Z,295
2016-04-13T11:04:53.844Z,300
2016-04-13T11:05:31.485Z,300
2016-04-13T11:06:26.338Z,305
2016-04-13T11:08:30.561Z,305
2016-04-13T11:09:13.596Z,295
2016-04-13T11:10:54.912Z,280
2016-04-13T11:11:25.984Z,280
2016-04-13T11:12:38.570Z,290
2016-04-13T11:13:58.016Z,310
2016-04-13T11:14:57.960Z,310
2016-04-13T11:15:28.438Z,315
2016-04-13T11:16:37.021Z,320
2016-04-13T11:17:57.432Z,325
2016-04-13T11:18:46.186Z,335
2016-04-13T11:19:55.020Z,335
2016-04-13T11:20:45.165Z,340
2016-04-13T11:21:39.465Z,345
2016-04-13T11:22:37.031Z,345
2016-04-13T11:23:19.144Z,350
2016-04-13T11:24:12.378Z,350
2016-04-13T11:25:12.351Z,350
2016-04-13T11:26:12.338Z,345
2016-04-13T11:27:12.310Z,340
2016-04-13T11:28:12.313Z,335
2016-04-13T11:29:12.285Z,325
2016-04-13T11:30:12.305Z,320
2016-04-13T11:31:12.245Z,320
2016-04-13T11:32:12.247Z,320
2016-04-13T11:33:12.233Z,330
2016-04-13T11:34:12.206Z,345
2016-04-13T11:35:12.193Z,350
2016-04-13T11:36:12.180Z,355
2016-04-13T11:37:12.167Z,355
2016-04-13T11:38:12.216Z,360
2016-04-13T11:39:12.110Z,365
2016-04-13T11:40:12.096Z,365
2016-04-13T11:41:12.084Z,365
2016-04-13T11:42:12.071Z,375
2016-04-13T11:43:12.073Z,370
2016-04-13T11:44:12.045Z,380
2016-04-13T11:45:12.032Z,380
2016-04-13T11:46:12.003Z,385
2016-04-13T11:47:11.976Z,395
2016-04-13T11:48:11.993Z,395
2016-04-13T11:49:11.949Z,400
2016-04-13T11:50:11.937Z,405
2016-04-13T11:51:11.923Z,405
2016-04-13T11:52:11.925Z,410
2016-04-13T11:53:11.897Z,410
2016-04-13T11:54:11.869Z,410
2016-04-13T11:55:11.840Z,410
2016-04-13T11:56:11.843Z,410
2016-04-13T11:57:11.814Z,410
2016-04-13T11:58:11.801Z,410
2016-04-13T11:59:11.772Z,410
2016-04-13T12:00:11.760Z,410
2016-04-13T12:01:11.747Z,415
2016-04-13T12:02:11.734Z,415
2016-04-13T12:03:11.721Z,415
2016-04-13T12:04:11.692Z,415
2016-04-13T12:05:11.664Z,415
2016-04-13T12:06:11.667Z,415
2016-04-13T12:07:11.669Z,415
2016-04-13T12:08:11.689Z,415
2016-04-13T12:09:11.628Z,415
2016-04-13T12:10:11.600Z,415
2016-04-13T12:11:11.587Z,420
2016-04-13T12:12:11.575Z,420
2016-04-13T12:13:11.561Z,425
2016-04-13T12:14:11.533Z,420
2016-04-13T12:15:11.567Z,420
2016-04-13T12:16:11.508Z,415
2016-04-13T12:17:11.478Z,415
2016-04-13T12:18:11.466Z,415
2016-04-13T12:19:11.468Z,415
2016-04-13T12:20:11.455Z,415
2016-04-13T12:21:11.443Z,415
2016-04-13T12:22:11.413Z,415
2016-04-13T12:23:11.698Z,415
2016-04-13T12:24:11.388Z,415
2016-04-13T12:25:11.374Z,415
2016-04-13T12:26:11.346Z,415
2016-04-13T12:27:11.318Z,410
2016-04-13T12:28:11.321Z,410
2016-04-13T12:29:11.339Z,410
2016-04-13T12:30:15.967Z,410
2016-04-13T12:31:11.126Z,410
2016-04-13T12:32:11.253Z,415
2016-04-13T12:33:11.241Z,415
2016-04-13T12:34:11.212Z,420
2016-04-13T12:35:11.199Z,425
2016-04-13T12:36:11.186Z,420
2016-04-13T12:37:11.172Z,415
2016-04-13T12:38:11.395Z,425
2016-04-13T12:39:11.131Z,420
2016-04-13T12:40:11.134Z,420
2016-04-13T12:41:11.122Z,415
2016-04-13T12:42:11.093Z,415
2016-04-13T12:43:11.064Z,420
2016-04-13T12:44:11.051Z,415
2016-04-13T12:45:11.038Z,400
2016-04-13T12:46:11.025Z,395
2016-04-13T12:47:11.059Z,390
2016-04-13T12:48:10.983Z,385
2016-04-13T12:49:10.971Z,380
2016-04-13T12:50:10.958Z,375
2016-04-13T12:51:10.945Z,375
2016-04-13T12:52:10.933Z,380
2016-04-13T12:53:11.388Z,370
2016-04-13T12:54:10.890Z,370
2016-04-13T12:55:10.877Z,365
2016-04-13T12:56:10.865Z,360
2016-04-13T12:57:10.836Z,355
2016-04-13T12:58:10.839Z,345
2016-04-13T12:59:10.826Z,340
2016-04-13T13:00:10.641Z,335
2016-04-13T13:01:10.784Z,335
2016-04-13T13:02:10.756Z,340
2016-04-13T13:03:10.759Z,340
2016-04-13T13:04:10.762Z,335
2016-04-13T13:05:10.702Z,335
2016-04-13T13:06:10.689Z,335
2016-04-13T13:07:10.675Z,330
2016-04-13T13:08:10.834Z,330
2016-04-13T13:09:10.665Z,330
2016-04-13T13:10:10.621Z,330
2016-04-13T13:11:10.608Z,330
2016-04-13T13:12:10.626Z,330
2016-04-13T13:13:10.613Z,330
2016-04-13T13:14:10.586Z,335
2016-04-13T13:15:10.572Z,340
2016-04-13T13:16:10.637Z,345
2016-04-13T13:17:10.515Z,340
2016-04-13T13:18:10.502Z,345
2016-04-13T13:19:10.474Z,340
2016-04-13T13:20:10.461Z,340
2016-04-13T13:21:10.447Z,340
2016-04-13T13:22:10.435Z,340
2016-04-13T13:23:10.531Z,340
2016-04-13T13:24:10.408Z,340
2016-04-13T13:25:10.380Z,335
2016-04-13T13:26:10.367Z,335
2016-04-13T13:27:10.338Z,330
2016-04-13T13:28:10.326Z,330
2016-04-13T13:29:10.641Z,325
2016-04-13T13:30:10.299Z,325
2016-04-13T13:31:10.271Z,320
2016-04-13T13:32:10.259Z,320
2016-04-13T13:33:10.230Z,320
2016-04-13T13:34:10.232Z,315
2016-04-13T13:35:10.220Z,320
2016-04-13T13:36:10.191Z,310
2016-04-13T13:37:10.179Z,310
2016-04-13T13:38:10.118Z,310
2016-04-13T13:39:10.153Z,310
2016-04-13T13:40:10.139Z,310
2016-04-13T13:41:10.111Z,310
2016-04-13T13:42:10.098Z,305
2016-04-13T13:43:10.084Z,300
2016-04-13T13:44:10.056Z,295
2016-04-13T13:45:10.074Z,290
2016-04-13T13:46:10.015Z,285
2016-04-13T13:47:10.002Z,280
2016-04-13T13:48:09.832Z,280
2016-04-13T13:49:09.975Z,280
2016-04-13T13:50:09.963Z,275
2016-04-13T13:51:09.935Z,280
2016-04-13T13:52:09.937Z,280
2016-04-13T13:53:10.174Z,270
2016-04-13T13:54:09.896Z,275
2016-04-13T13:55:09.883Z,275
2016-04-13T13:56:09.854Z,270
2016-04-13T13:57:09.872Z,270
2016-04-13T13:58:09.829Z,270
2016-04-13T13:59:09.816Z,270
2016-04-13T14:00:09.802Z,270
2016-04-13T14:01:09.774Z,265
2016-04-13T14:02:09.761Z,265
2016-04-13T14:03:09.732Z,260
2016-04-13T14:04:09.720Z,260
2016-04-13T14:05:09.690Z,255
2016-04-13T14:06:09.693Z,255
2016-04-13T14:07:09.665Z,250